Time;durP1;ratioP1;P1;durP2;ratioP2;P2;SDS_P1;SDS_P2;PMS_P1;PMS_P2;Temp;Humidity;BMP_temperature;BMP_pressure;BME280_temperature;BME280_humidity;BME280_pressure;Samples;Min_cycle;Max_cycle;Signal;HPM_P1;HPM_P2
2022/07/29 00:01:48;;;;;;;6.63;1.40;;;18.00;94.60;;;;;;5053677;28;20273;-78
2022/07/29 00:04:14;;;;;;;6.33;1.47;;;18.10;94.90;;;;;;5053615;28;20736;-78
2022/07/29 00:06:40;;;;;;;5.90;1.50;;;18.10;94.70;;;;;;5053877;28;20561;-78
2022/07/29 00:09:06;;;;;;;3.97;1.50;;;18.10;94.60;;;;;;5053809;28;20545;-78
2022/07/29 00:11:31;;;;;;;8.07;1.97;;;18.10;95.20;;;;;;5053515;28;20169;-78
2022/07/29 00:13:57;;;;;;;3.87;1.50;;;18.00;94.80;;;;;;5053556;28;20197;-78
2022/07/29 00:16:22;;;;;;;4.53;1.43;;;17.90;95.10;;;;;;5053782;28;20189;-79
2022/07/29 00:18:48;;;;;;;5.43;1.60;;;17.90;95.20;;;;;;5053672;28;20815;-78
2022/07/29 00:21:14;;;;;;;4.43;1.50;;;17.80;95.30;;;;;;5053210;28;20181;-78
2022/07/29 00:23:40;;;;;;;4.43;1.47;;;17.80;95.30;;;;;;5053860;28;20187;-79
2022/07/29 00:26:05;;;;;;;1.77;1.33;;;17.70;95.60;;;;;;5053754;28;20255;-78
2022/07/29 00:28:31;;;;;;;1.40;1.30;;;17.70;95.70;;;;;;5053449;28;20173;-80
2022/07/29 00:30:57;;;;;;;5.47;1.50;;;17.70;95.70;;;;;;5053147;28;20173;-78
2022/07/29 00:33:23;;;;;;;3.77;1.30;;;17.70;95.60;;;;;;5053628;28;20177;-79
2022/07/29 00:35:48;;;;;;;1.93;1.50;;;17.70;95.60;;;;;;5053503;28;20666;-78
2022/07/29 00:38:19;;;;;;;2.20;1.57;;;17.70;95.70;;;;;;5054847;28;20183;-77
2022/07/29 00:40:45;;;;;;;2.27;1.37;;;17.60;95.60;;;;;;5053257;28;20181;-78
2022/07/29 00:43:12;;;;;;;5.00;1.60;;;17.60;95.80;;;;;;5053997;28;20243;-77
2022/07/29 00:45:37;;;;;;;3.90;1.57;;;17.50;96.20;;;;;;5053046;28;20205;-79
2022/07/29 00:48:04;;;;;;;2.20;1.57;;;17.50;96.40;;;;;;5053172;28;20177;-78
2022/07/29 00:50:31;;;;;;;2.17;1.50;;;17.40;96.20;;;;;;5054360;28;20242;-79
2022/07/29 00:52:57;;;;;;;5.87;1.70;;;17.40;96.80;;;;;;5052993;28;20231;-78
2022/07/29 00:55:23;;;;;;;6.10;1.90;;;17.30;96.60;;;;;;5053023;28;20193;-77
2022/07/29 00:57:50;;;;;;;5.80;1.43;;;17.40;96.50;;;;;;5053004;28;20676;-78
2022/07/29 01:00:22;;;;;;;7.03;2.07;;;17.40;96.90;;;;;;5052129;28;20190;-78
2022/07/29 01:02:48;;;;;;;1.50;1.40;;;17.20;97.10;;;;;;5052470;28;20668;-79
2022/07/29 01:05:17;;;;;;;6.23;1.70;;;17.20;97.30;;;;;;5052601;28;20213;-78
2022/07/29 01:07:44;;;;;;;3.10;1.70;;;17.20;97.20;;;;;;5052719;28;20183;-77
2022/07/29 01:10:12;;;;;;;5.70;1.77;;;17.20;97.50;;;;;;5052799;28;20185;-78
2022/07/29 01:12:38;;;;;;;6.23;1.47;;;17.10;97.40;;;;;;5052391;28;20204;-78
2022/07/29 01:15:06;;;;;;;2.40;1.70;;;17.10;97.60;;;;;;5052379;28;20236;-78
2022/07/29 01:17:44;;;;;;;3.60;1.53;;;17.00;97.80;;;;;;5052468;28;20213;-78
2022/07/29 01:20:55;;;;;;;8.17;1.83;;;17.10;97.90;;;;;;5051926;28;20187;-78
2022/07/29 01:23:35;;;;;;;3.90;1.77;;;17.10;97.50;;;;;;5052208;28;20278;-79
2022/07/29 01:26:01;;;;;;;4.17;1.70;;;17.10;97.60;;;;;;5052197;28;20209;-78
2022/07/29 01:28:36;;;;;;;6.33;1.60;;;17.00;97.50;;;;;;5051965;28;20264;-78
2022/07/29 01:31:06;;;;;;;3.67;1.60;;;17.00;97.50;;;;;;5052052;28;20165;-78
2022/07/29 01:33:48;;;;;;;4.57;1.53;;;17.00;97.50;;;;;;5051975;28;20178;-78
2022/07/29 01:36:51;;;;;;;8.77;1.57;;;17.00;97.50;;;;;;5052107;28;20637;-77
2022/07/29 01:39:28;;;;;;;2.40;1.80;;;17.00;97.60;;;;;;5018828;28;20192;-78
2022/07/29 01:42:04;;;;;;;5.27;1.40;;;17.00;97.50;;;;;;5051535;28;20272;-79
2022/07/29 01:44:39;;;;;;;6.13;1.60;;;17.00;97.50;;;;;;5050959;28;20239;-79
2022/07/29 01:47:12;;;;;;;3.37;1.60;;;16.90;97.70;;;;;;5051855;28;20254;-78
2022/07/29 01:49:45;;;;;;;3.20;1.73;;;16.90;98.10;;;;;;5051784;28;20201;-77
2022/07/29 01:52:23;;;;;;;3.03;1.93;;;16.90;98.30;;;;;;5052855;28;20174;-77
2022/07/29 01:54:56;;;;;;;6.20;1.90;;;17.00;98.00;;;;;;5051447;28;20284;-78
2022/07/29 01:57:28;;;;;;;5.50;1.60;;;17.00;97.80;;;;;;5051649;28;20176;-77
2022/07/29 01:59:56;;;;;;;4.30;1.83;;;17.10;97.60;;;;;;5050997;28;20192;-77
2022/07/29 02:02:23;;;;;;;1.80;1.70;;;17.00;97.40;;;;;;5050906;28;20543;-77
2022/07/29 02:04:50;;;;;;;5.03;1.70;;;17.00;97.70;;;;;;5051018;28;20303;-77
2022/07/29 02:07:19;;;;;;;5.40;1.80;;;17.00;97.90;;;;;;5050931;28;20197;-77
2022/07/29 02:09:47;;;;;;;3.17;1.60;;;17.00;98.00;;;;;;5050971;28;20220;-77
2022/07/29 02:12:14;;;;;;;6.00;1.63;;;16.90;98.00;;;;;;5050849;28;20545;-77
2022/07/29 02:14:47;;;;;;;3.80;1.77;;;16.90;97.80;;;;;;5050852;28;20411;-77
2022/07/29 02:17:15;;;;;;;4.83;1.53;;;16.90;98.00;;;;;;5051252;28;20177;-77
2022/07/29 02:19:44;;;;;;;5.67;1.60;;;16.90;98.00;;;;;;5050946;28;20169;-77
2022/07/29 02:22:11;;;;;;;3.30;1.90;;;16.90;97.90;;;;;;5050993;28;20177;-77
2022/07/29 02:24:38;;;;;;;2.50;1.47;;;16.80;97.70;;;;;;5052314;28;20197;-77
2022/07/29 02:27:04;;;;;;;4.83;1.90;;;16.90;97.80;;;;;;5051029;28;20205;-77
2022/07/29 02:29:32;;;;;;;4.37;1.80;;;16.90;97.80;;;;;;5050888;28;20252;-77
2022/07/29 02:31:59;;;;;;;3.53;1.70;;;16.80;97.70;;;;;;5052208;28;20165;-77
2022/07/29 02:34:25;;;;;;;8.63;1.93;;;16.90;97.70;;;;;;5050817;28;20191;-77
2022/07/29 02:36:52;;;;;;;4.30;2.00;;;16.80;97.60;;;;;;5051047;28;20181;-77
2022/07/29 02:39:18;;;;;;;3.03;1.67;;;16.70;98.20;;;;;;5051112;28;20192;-77
2022/07/29 02:41:54;;;;;;;2.40;1.70;;;16.70;98.50;;;;;;5050768;28;20177;-77
2022/07/29 02:44:25;;;;;;;8.57;1.90;;;16.60;98.70;;;;;;5050500;28;20323;-77
2022/07/29 02:46:52;;;;;;;3.90;1.80;;;16.60;98.80;;;;;;5050710;28;20697;-75
2022/07/29 02:49:21;;;;;;;5.77;1.80;;;16.60;99.00;;;;;;5050954;28;20173;-77
2022/07/29 02:51:54;;;;;;;9.63;2.03;;;16.60;98.80;;;;;;5050707;28;20203;-77
2022/07/29 02:54:25;;;;;;;9.53;1.73;;;16.60;99.00;;;;;;5050471;28;20199;-77
2022/07/29 02:56:55;;;;;;;3.30;1.80;;;16.60;98.60;;;;;;5051003;28;20180;-77
2022/07/29 02:59:24;;;;;;;5.90;2.00;;;16.70;98.40;;;;;;5050496;28;20192;-77
2022/07/29 03:01:52;;;;;;;7.27;1.80;;;16.60;98.50;;;;;;5050452;28;20717;-77
2022/07/29 03:04:20;;;;;;;7.40;1.90;;;16.60;98.70;;;;;;5050569;28;20619;-77
2022/07/29 03:06:46;;;;;;;3.97;1.93;;;16.60;98.70;;;;;;5050694;28;20593;-77
2022/07/29 03:09:13;;;;;;;4.23;1.70;;;16.60;98.40;;;;;;5050759;28;20629;-77
2022/07/29 03:11:41;;;;;;;10.10;2.10;;;16.60;98.30;;;;;;5050458;28;20621;-77
2022/07/29 03:14:07;;;;;;;4.03;1.70;;;16.70;98.60;;;;;;5050469;28;20301;-77
2022/07/29 03:16:36;;;;;;;6.33;1.80;;;16.60;98.60;;;;;;5050586;28;20264;-77
2022/07/29 03:19:03;;;;;;;4.97;1.67;;;16.60;98.50;;;;;;5050665;28;20175;-77
2022/07/29 03:21:29;;;;;;;5.13;1.80;;;16.60;98.50;;;;;;5050000;28;20177;-77
2022/07/29 03:23:54;;;;;;;4.63;1.70;;;16.60;98.10;;;;;;5050375;28;20284;-77
2022/07/29 03:26:20;;;;;;;5.20;1.77;;;16.60;98.10;;;;;;5050396;28;20791;-77
2022/07/29 03:28:46;;;;;;;2.97;1.53;;;16.60;98.30;;;;;;5050246;28;20193;-78
2022/07/29 03:31:11;;;;;;;5.13;1.70;;;16.50;98.40;;;;;;5050176;28;20173;-77
2022/07/29 03:33:37;;;;;;;7.83;2.00;;;16.50;98.70;;;;;;5050510;28;20177;-77
2022/07/29 03:36:03;;;;;;;7.70;1.70;;;16.50;98.60;;;;;;5050358;28;20174;-76
2022/07/29 03:38:30;;;;;;;5.07;1.97;;;16.40;98.60;;;;;;5050361;28;20173;-77
2022/07/29 03:41:01;;;;;;;5.03;1.63;;;16.30;98.90;;;;;;5050124;28;20252;-77
2022/07/29 03:43:30;;;;;;;5.43;1.90;;;16.30;99.10;;;;;;5050043;28;20175;-76
2022/07/29 03:45:57;;;;;;;6.60;1.90;;;16.30;99.60;;;;;;5050223;28;20247;-76
2022/07/29 03:48:25;;;;;;;4.83;1.87;;;16.30;99.60;;;;;;5050305;28;20169;-77
2022/07/29 03:50:50;;;;;;;2.80;1.80;;;16.30;99.60;;;;;;5050156;28;20169;-77
2022/07/29 03:53:17;;;;;;;5.53;1.73;;;16.30;99.50;;;;;;5049932;28;20177;-77
2022/07/29 03:55:50;;;;;;;6.37;2.00;;;16.30;99.50;;;;;;5051209;28;20267;-77
2022/07/29 03:58:18;;;;;;;4.27;1.93;;;16.30;99.80;;;;;;5049888;28;20177;-77
2022/07/29 04:00:45;;;;;;;5.80;1.73;;;16.30;99.90;;;;;;5050136;28;20204;-77
2022/07/29 04:03:12;;;;;;;8.30;2.10;;;16.30;99.90;;;;;;5050107;28;20178;-77
2022/07/29 04:05:37;;;;;;;5.53;1.60;;;16.30;99.90;;;;;;5050157;28;20209;-77
2022/07/29 04:08:03;;;;;;;5.50;1.80;;;16.30;99.90;;;;;;5053765;28;20174;-77
2022/07/29 04:10:29;;;;;;;7.63;2.10;;;16.30;99.90;;;;;;5053638;28;20171;-77
2022/07/29 04:12:55;;;;;;;8.00;1.70;;;16.30;99.70;;;;;;5053465;28;20172;-77
2022/07/29 04:15:21;;;;;;;5.90;1.80;;;16.50;99.90;;;;;;5053581;28;20192;-77
2022/07/29 04:17:46;;;;;;;2.50;1.63;;;16.50;99.70;;;;;;5053514;28;20545;-77
2022/07/29 04:20:13;;;;;;;4.57;2.00;;;16.50;99.20;;;;;;5053567;28;20555;-77
2022/07/29 04:22:39;;;;;;;2.63;1.70;;;16.50;99.30;;;;;;5053201;28;20264;-77
2022/07/29 04:25:05;;;;;;;5.43;2.00;;;16.50;99.30;;;;;;5053271;28;20214;-77
2022/07/29 04:27:31;;;;;;;4.10;1.90;;;16.50;99.70;;;;;;5053316;28;20253;-77
2022/07/29 04:29:57;;;;;;;9.00;2.07;;;16.40;99.60;;;;;;5053371;28;20170;-78
2022/07/29 04:32:24;;;;;;;4.47;1.90;;;16.40;99.50;;;;;;5053256;28;20180;-77
2022/07/29 04:34:49;;;;;;;7.30;2.10;;;16.40;99.90;;;;;;5053244;28;20193;-78
2022/07/29 04:37:15;;;;;;;6.93;1.93;;;16.40;99.90;;;;;;5053150;28;20175;-78
2022/07/29 04:39:40;;;;;;;5.73;1.97;;;16.40;99.90;;;;;;5053139;28;20181;-78
2022/07/29 04:42:06;;;;;;;6.90;2.20;;;16.40;99.90;;;;;;5053070;28;20178;-78
2022/07/29 04:44:32;;;;;;;7.83;2.33;;;16.50;99.70;;;;;;5052734;28;20202;-78
2022/07/29 04:46:57;;;;;;;4.13;1.87;;;16.50;99.30;;;;;;5053057;28;20206;-78
2022/07/29 04:49:23;;;;;;;4.27;1.90;;;16.50;99.80;;;;;;5052991;28;20182;-78
2022/07/29 04:51:49;;;;;;;3.60;1.80;;;16.50;99.60;;;;;;5052608;28;20177;-77
2022/07/29 04:54:14;;;;;;;7.37;2.17;;;16.60;99.90;;;;;;5052881;28;20193;-79
2022/07/29 04:56:41;;;;;;;5.03;1.73;;;16.70;99.50;;;;;;5053203;28;20264;-78
2022/07/29 04:59:07;;;;;;;6.90;2.30;;;16.70;99.70;;;;;;5052609;28;20193;-80
2022/07/29 05:01:32;;;;;;;6.23;1.90;;;16.70;99.70;;;;;;5053066;28;20243;-77
2022/07/29 05:03:58;;;;;;;3.60;1.80;;;16.70;99.90;;;;;;5052621;28;20206;-78
2022/07/29 05:06:24;;;;;;;7.80;2.33;;;16.80;99.60;;;;;;5052640;28;20224;-78
2022/07/29 05:08:49;;;;;;;5.57;2.10;;;16.80;99.20;;;;;;5052605;28;20173;-79
2022/07/29 05:11:15;;;;;;;12.70;1.90;;;16.90;99.50;;;;;;5052444;28;20656;-77
2022/07/29 05:13:41;;;;;;;6.23;1.73;;;16.90;99.30;;;;;;5052784;28;20173;-79
2022/07/29 05:16:08;;;;;;;4.33;1.50;;;16.80;99.50;;;;;;5052774;28;20200;-79
2022/07/29 05:18:33;;;;;;;4.37;1.83;;;16.90;99.40;;;;;;5052731;28;20576;-79
2022/07/29 05:20:59;;;;;;;7.10;2.00;;;16.90;99.80;;;;;;5052573;28;20252;-77
2022/07/29 05:23:25;;;;;;;5.43;1.73;;;17.00;99.70;;;;;;5052703;28;20664;-76
2022/07/29 05:25:51;;;;;;;7.93;1.90;;;16.90;99.90;;;;;;5052086;28;20696;-76
2022/07/29 05:28:16;;;;;;;2.77;1.87;;;16.80;99.90;;;;;;5052536;28;20218;-76
2022/07/29 05:30:44;;;;;;;7.57;1.90;;;16.90;99.90;;;;;;5052121;28;20181;-77
2022/07/29 05:33:10;;;;;;;5.20;1.83;;;16.90;99.90;;;;;;5051928;28;20569;-78
2022/07/29 05:35:36;;;;;;;5.97;1.80;;;17.00;99.90;;;;;;5051966;28;20276;-77
2022/07/29 05:38:03;;;;;;;5.00;1.63;;;17.00;99.90;;;;;;5052247;28;20644;-77
2022/07/29 05:40:29;;;;;;;4.53;1.83;;;17.10;99.90;;;;;;5052358;28;20200;-79
2022/07/29 05:42:55;;;;;;;6.90;1.80;;;17.10;99.90;;;;;;5052011;28;20201;-78
2022/07/29 05:45:21;;;;;;;3.97;1.90;;;17.10;99.90;;;;;;5051741;28;20194;-78
2022/07/29 05:47:46;;;;;;;6.50;2.00;;;17.30;99.90;;;;;;5054009;28;20199;-78
2022/07/29 05:50:12;;;;;;;2.83;1.90;;;17.30;99.90;;;;;;5052018;28;20260;-76
2022/07/29 05:52:38;;;;;;;4.23;1.90;;;17.20;99.90;;;;;;5051479;28;20170;-75
2022/07/29 05:55:05;;;;;;;4.53;1.87;;;17.00;99.90;;;;;;5051887;28;20189;-77
2022/07/29 05:57:31;;;;;;;3.67;1.73;;;17.10;99.90;;;;;;5051646;28;20260;-75
2022/07/29 05:59:56;;;;;;;3.23;1.90;;;17.10;99.90;;;;;;5051042;28;20281;-78
2022/07/29 06:02:22;;;;;;;5.17;1.80;;;17.20;99.90;;;;;;5051732;28;20177;-80
2022/07/29 06:04:49;;;;;;;7.47;2.20;;;17.30;99.90;;;;;;5051487;28;20197;-77
2022/07/29 06:07:15;;;;;;;4.90;1.73;;;17.20;99.90;;;;;;5051551;28;20262;-78
2022/07/29 06:09:42;;;;;;;3.87;2.00;;;17.30;99.90;;;;;;5051414;28;20169;-76
2022/07/29 06:12:08;;;;;;;5.07;1.80;;;17.30;99.90;;;;;;5051233;28;20184;-75
2022/07/29 06:14:35;;;;;;;6.63;2.10;;;17.40;99.90;;;;;;5048201;28;20224;-76
2022/07/29 06:17:00;;;;;;;2.20;1.90;;;17.40;99.90;;;;;;5051439;28;20177;-76
2022/07/29 06:19:26;;;;;;;8.03;2.27;;;17.40;99.90;;;;;;5050612;28;20177;-78
2022/07/29 06:21:52;;;;;;;8.37;1.77;;;17.50;99.90;;;;;;5051127;28;20264;-77
2022/07/29 06:24:18;;;;;;;5.80;2.07;;;17.60;99.90;;;;;;5050991;28;20565;-78
2022/07/29 06:26:44;;;;;;;3.00;1.80;;;17.70;99.90;;;;;;5051199;28;20213;-76
2022/07/29 06:29:12;;;;;;;8.20;2.10;;;17.80;99.90;;;;;;5051354;28;20292;-78
2022/07/29 06:31:39;;;;;;;6.03;2.70;;;17.90;99.90;;;;;;5042136;28;20257;-78
2022/07/29 06:34:05;;;;;;;4.13;1.97;;;17.80;99.90;;;;;;5042893;28;20201;-76
2022/07/29 06:36:33;;;;;;;6.33;2.03;;;17.70;99.90;;;;;;5039809;28;20170;-76
2022/07/29 06:38:59;;;;;;;9.67;2.10;;;17.80;99.90;;;;;;5040459;28;20173;-76
2022/07/29 06:41:25;;;;;;;6.23;1.90;;;17.80;99.90;;;;;;5041479;28;20261;-76
2022/07/29 06:43:51;;;;;;;4.67;2.07;;;17.80;99.90;;;;;;5036934;28;20194;-76
2022/07/29 06:46:18;;;;;;;5.80;2.10;;;17.80;99.90;;;;;;5040840;28;20223;-75
2022/07/29 06:48:44;;;;;;;5.23;2.20;;;17.80;99.90;;;;;;5042507;28;20185;-77
2022/07/29 06:51:11;;;;;;;5.57;2.23;;;17.80;99.90;;;;;;5039702;28;20216;-77
2022/07/29 06:53:37;;;;;;;4.57;2.37;;;17.70;99.90;;;;;;5042562;28;20200;-76
2022/07/29 06:56:05;;;;;;;5.57;2.13;;;17.70;99.90;;;;;;5041778;28;20174;-78
2022/07/29 06:58:31;;;;;;;5.33;2.07;;;17.60;99.90;;;;;;5039188;28;20190;-79
2022/07/29 07:00:57;;;;;;;6.87;2.37;;;17.60;99.90;;;;;;5042751;28;20166;-78
2022/07/29 07:03:23;;;;;;;6.93;2.37;;;17.60;99.90;;;;;;5042066;28;20173;-78
2022/07/29 07:05:49;;;;;;;7.03;2.53;;;17.60;99.90;;;;;;5041200;28;20204;-77
2022/07/29 07:08:19;;;;;;;3.77;2.13;;;17.80;99.90;;;;;;5040287;28;20204;-79
2022/07/29 07:10:45;;;;;;;5.87;2.20;;;17.80;99.90;;;;;;5041441;28;20169;-77
2022/07/29 07:13:11;;;;;;;7.20;2.60;;;17.80;99.90;;;;;;5039910;28;20569;-79
2022/07/29 07:15:36;;;;;;;7.13;2.40;;;17.80;99.90;;;;;;5036172;28;20205;-76
2022/07/29 07:18:03;;;;;;;7.83;2.13;;;17.90;99.90;;;;;;5040205;28;20237;-80
2022/07/29 07:20:29;;;;;;;10.73;2.87;;;17.90;99.90;;;;;;5040206;28;20166;-78
2022/07/29 07:22:55;;;;;;;5.33;2.20;;;18.10;99.90;;;;;;5038807;28;20192;-78
2022/07/29 07:25:20;;;;;;;4.13;2.27;;;18.10;99.90;;;;;;5039825;28;20335;-79
2022/07/29 07:27:46;;;;;;;7.77;2.37;;;18.30;99.90;;;;;;5040188;28;20198;-76
2022/07/29 07:30:13;;;;;;;7.97;2.20;;;18.20;99.90;;;;;;5039952;28;20233;-76
2022/07/29 07:32:38;;;;;;;4.40;2.03;;;18.30;99.90;;;;;;5041208;28;20200;-79
2022/07/29 07:35:07;;;;;;;11.17;2.27;;;18.40;99.90;;;;;;5040027;28;20218;-79
2022/07/29 07:37:33;;;;;;;5.53;2.30;;;18.40;99.60;;;;;;5039367;28;20638;-78
2022/07/29 07:39:58;;;;;;;3.83;1.97;;;18.40;99.80;;;;;;5042532;28;20312;-78
2022/07/29 07:42:24;;;;;;;8.50;1.97;;;18.50;99.90;;;;;;5043785;28;20586;-78
2022/07/29 07:44:50;;;;;;;5.80;2.60;;;18.50;99.40;;;;;;5044016;28;20193;-79
2022/07/29 07:47:19;;;;;;;5.17;2.00;;;18.60;99.70;;;;;;5045154;28;20277;-80
2022/07/29 07:49:48;;;;;;;4.43;2.00;;;18.30;99.90;;;;;;5044776;28;20171;-78
2022/07/29 07:52:15;;;;;;;10.17;2.23;;;18.50;99.90;;;;;;5042035;28;20665;-79
2022/07/29 07:54:42;;;;;;;3.17;2.00;;;18.60;99.90;;;;;;5039317;28;20186;-78
2022/07/29 07:57:08;;;;;;;6.53;1.87;;;18.70;99.60;;;;;;5044710;28;20669;-79
2022/07/29 07:59:34;;;;;;;11.07;2.13;;;18.60;99.90;;;;;;5042755;28;20185;-79
2022/07/29 08:02:00;;;;;;;7.93;1.93;;;18.60;99.90;;;;;;5037506;28;20697;-80
2022/07/29 08:04:26;;;;;;;4.50;2.00;;;18.70;99.90;;;;;;5044455;28;20193;-77
2022/07/29 08:06:53;;;;;;;4.60;2.10;;;18.60;99.90;;;;;;5043181;28;20189;-80
2022/07/29 08:09:20;;;;;;;5.13;1.80;;;18.60;99.90;;;;;;5043880;28;20169;-80
2022/07/29 08:11:45;;;;;;;8.40;2.20;;;18.70;99.90;;;;;;5043466;28;20177;-80
2022/07/29 08:14:11;;;;;;;10.30;2.20;;;18.70;99.90;;;;;;5042943;28;20189;-81
2022/07/29 08:16:37;;;;;;;11.13;2.13;;;18.60;99.90;;;;;;5044807;28;20679;-79
2022/07/29 08:19:03;;;;;;;9.47;2.33;;;18.80;99.90;;;;;;5043971;28;20181;-80
2022/07/29 08:21:28;;;;;;;7.90;2.07;;;18.90;99.70;;;;;;5036987;28;20205;-80
2022/07/29 08:24:42;;;;;;;10.27;2.00;;;19.00;99.80;;;;;;5034440;28;20194;-81
2022/07/29 08:26:41;;;;;;;7.90;1.83;;;19.20;99.90;;;;;;5035348;28;20700;-79
2022/07/29 08:29:07;;;;;;;6.17;2.40;;;19.20;99.90;;;;;;5034840;28;20193;-80
2022/07/29 08:31:33;;;;;;;6.60;1.97;;;19.50;99.90;;;;;;5033915;28;20170;-81
2022/07/29 08:33:59;;;;;;;5.13;1.97;;;19.60;99.00;;;;;;5033717;28;20217;-80
2022/07/29 08:36:25;;;;;;;6.40;1.60;;;19.80;99.40;;;;;;5033554;28;20202;-80
2022/07/29 08:38:51;;;;;;;8.90;2.22;;;20.10;99.00;;;;;;5033239;28;20174;-80
2022/07/29 08:41:18;;;;;;;8.07;2.22;;;20.20;98.60;;;;;;5033533;28;20181;-81
2022/07/29 08:43:44;;;;;;;9.18;1.90;;;20.50;98.30;;;;;;5033720;28;20243;-80
2022/07/29 08:46:10;;;;;;;9.63;2.28;;;20.40;98.60;;;;;;5033858;28;20198;-81
2022/07/29 08:48:37;;;;;;;4.47;1.90;;;20.20;98.30;;;;;;5034273;28;20170;-80
2022/07/29 08:51:05;;;;;;;5.60;2.10;;;20.40;98.20;;;;;;5034398;28;20230;-79
2022/07/29 08:53:32;;;;;;;6.18;2.13;;;20.30;97.90;;;;;;5033201;28;20325;-81
2022/07/29 08:55:59;;;;;;;9.02;2.10;;;20.20;98.30;;;;;;5034002;28;20178;-79
2022/07/29 08:58:26;;;;;;;7.55;2.20;;;20.20;98.20;;;;;;5034051;28;20190;-79
2022/07/29 09:00:55;;;;;;;10.65;2.20;;;20.30;98.70;;;;;;5039349;28;20177;-79
2022/07/29 09:03:23;;;;;;;10.50;1.80;;;20.20;98.80;;;;;;5053407;28;20174;-79
2022/07/29 09:05:49;;;;;;;9.20;2.10;;;20.10;98.60;;;;;;5053669;28;20255;-79
2022/07/29 09:08:18;;;;;;;5.47;1.70;;;20.10;98.50;;;;;;5053219;28;20173;-79
2022/07/29 09:10:44;;;;;;;4.32;1.85;;;19.90;98.90;;;;;;5053376;28;20245;-79
2022/07/29 09:13:10;;;;;;;5.00;1.90;;;20.10;99.10;;;;;;5053874;28;20173;-79
2022/07/29 09:15:36;;;;;;;7.60;1.98;;;20.00;99.10;;;;;;5052357;28;20287;-79
2022/07/29 09:18:02;;;;;;;7.80;1.90;;;19.90;99.20;;;;;;5052358;28;20180;-79
2022/07/29 09:23:14;;;;;;;8.20;1.80;;;19.90;99.20;;;;;;5032772;28;20585;-83
2022/07/29 09:25:40;;;;;;;7.53;2.25;;;19.80;99.50;;;;;;5050523;28;20217;-84
2022/07/29 09:28:18;;;;;;;6.88;1.90;;;19.70;99.50;;;;;;5052583;28;20166;-84
2022/07/29 09:30:55;;;;;;;5.43;2.30;;;19.70;99.80;;;;;;5052507;28;20231;-84
2022/07/29 09:33:22;;;;;;;6.38;2.00;;;19.70;99.80;;;;;;5052523;28;20189;-85
2022/07/29 09:36:04;;;;;;;11.43;2.35;;;19.60;99.80;;;;;;5051856;28;20290;-82
2022/07/29 09:38:30;;;;;;;9.15;2.22;;;19.70;99.60;;;;;;5052678;28;20199;-84
2022/07/29 09:40:57;;;;;;;6.60;2.30;;;19.70;99.50;;;;;;5052410;28;20170;-84
2022/07/29 09:43:23;;;;;;;6.70;2.22;;;19.80;99.80;;;;;;5051993;28;20174;-86
2022/07/29 09:45:48;;;;;;;6.55;2.22;;;19.80;99.90;;;;;;5052630;28;20208;-85
2022/07/29 09:48:24;;;;;;;9.40;2.15;;;19.90;99.80;;;;;;5052637;28;20174;-85
2022/07/29 09:50:52;;;;;;;7.78;2.15;;;19.90;99.70;;;;;;5052209;28;20168;-85
2022/07/29 09:53:32;;;;;;;7.15;2.15;;;20.00;99.40;;;;;;5051478;28;20772;-86
2022/07/29 09:55:58;;;;;;;11.55;2.00;;;20.00;99.90;;;;;;5051387;28;20181;-86
2022/07/29 09:58:24;;;;;;;13.90;2.65;;;20.10;99.60;;;;;;5047843;28;20577;-86
2022/07/29 10:00:51;;;;;;;14.65;2.53;;;20.10;99.40;;;;;;5031703;28;20284;-85
2022/07/29 10:03:17;;;;;;;7.15;1.77;;;20.20;99.70;;;;;;5030813;28;20170;-85
2022/07/29 10:05:44;;;;;;;10.05;1.90;;;20.30;99.40;;;;;;5031341;28;20194;-85
2022/07/29 10:08:12;;;;;;;3.97;1.73;;;20.40;99.60;;;;;;5031722;28;20178;-84
2022/07/29 10:10:42;;;;;;;7.90;2.10;;;20.50;99.80;;;;;;5031670;28;20220;-86
2022/07/29 10:13:13;;;;;;;11.50;2.08;;;20.50;99.90;;;;;;5031736;28;20180;-87
2022/07/29 10:15:43;;;;;;;5.63;2.13;;;20.50;99.90;;;;;;5032349;28;20198;-84
2022/07/29 10:18:10;;;;;;;3.72;2.28;;;20.70;99.90;;;;;;5031748;28;20638;-85
2022/07/29 10:20:36;;;;;;;6.70;2.25;;;21.10;99.90;;;;;;5032850;28;20540;-85
2022/07/29 10:23:02;;;;;;;4.78;2.22;;;21.30;99.90;;;;;;5032464;28;20175;-83
2022/07/29 10:25:29;;;;;;;6.90;2.35;;;21.30;99.90;;;;;;5032500;28;20674;-83
2022/07/29 10:27:54;;;;;;;3.63;2.50;;;21.10;99.50;;;;;;5032382;28;20278;-83
2022/07/29 10:30:22;;;;;;;5.15;2.13;;;20.90;99.90;;;;;;5033611;28;20205;-84
2022/07/29 10:33:30;;;;;;;7.57;2.65;;;21.10;99.90;;;;;;5033047;28;20272;-80
2022/07/29 10:36:05;;;;;;;6.90;2.17;;;21.20;99.90;;;;;;5030787;28;20864;-82
2022/07/29 10:38:42;;;;;;;10.88;2.40;;;20.90;99.90;;;;;;5032695;28;20220;-84
2022/07/29 10:41:28;;;;;;;6.00;2.83;;;21.00;99.90;;;;;;5032130;28;20170;-81
2022/07/29 10:44:01;;;;;;;7.43;3.00;;;20.70;99.90;;;;;;5030915;28;20201;-83
2022/07/29 10:46:27;;;;;;;8.35;2.88;;;20.70;99.90;;;;;;5031816;28;20240;-84
2022/07/29 10:49:21;;;;;;;6.95;2.67;;;20.50;99.90;;;;;;5032228;28;20176;-84
2022/07/29 10:51:50;;;;;;;6.68;2.85;;;20.40;99.90;;;;;;5032267;28;20167;-82
2022/07/29 10:54:38;;;;;;;7.85;2.80;;;20.30;99.90;;;;;;5032622;28;20298;-83
2022/07/29 10:57:20;;;;;;;5.40;2.88;;;20.00;99.90;;;;;;5032678;28;20178;-85
2022/07/29 11:00:04;;;;;;;6.72;2.63;;;20.00;99.90;;;;;;5033472;28;20197;-83
2022/07/29 11:02:56;;;;;;;10.20;3.17;;;20.00;99.90;;;;;;5036916;28;20173;-85
2022/07/29 11:05:20;;;;;;;7.13;3.15;;;19.90;99.90;;;;;;5043432;28;20210;-82
2022/07/29 11:08:08;;;;;;;5.50;2.90;;;19.80;99.90;;;;;;5042115;28;20740;-82
2022/07/29 11:10:34;;;;;;;8.18;3.35;;;19.80;99.90;;;;;;5042050;28;20170;-82
2022/07/29 11:12:59;;;;;;;8.00;3.20;;;19.90;99.90;;;;;;5039985;28;20631;-83
2022/07/29 11:15:25;;;;;;;7.63;2.75;;;19.90;99.90;;;;;;5044777;28;20190;-82
2022/07/29 11:17:54;;;;;;;7.32;2.90;;;19.70;99.90;;;;;;5046802;28;20234;-85
2022/07/29 11:20:45;;;;;;;4.90;2.97;;;19.60;99.90;;;;;;5049435;28;20071;-80
2022/07/29 11:23:28;;;;;;;10.98;2.95;;;19.60;99.90;;;;;;5068112;28;20603;-81
2022/07/29 11:26:21;;;;;;;8.88;3.20;;;19.80;99.90;;;;;;5045230;28;20201;-81
2022/07/29 11:28:51;;;;;;;11.23;3.72;;;19.90;99.90;;;;;;5046385;28;20189;-80
2022/07/29 11:31:38;;;;;;;11.18;3.08;;;19.80;99.90;;;;;;5048520;28;20162;-79
2022/07/29 11:34:36;;;;;;;18.08;4.75;;;19.80;99.90;;;;;;5042938;28;20719;-80
2022/07/29 11:37:12;;;;;;;5.45;2.88;;;19.90;99.90;;;;;;5043600;28;20297;-79
2022/07/29 11:39:56;;;;;;;8.38;3.30;;;19.90;99.90;;;;;;5045805;28;20173;-80
2022/07/29 11:42:24;;;;;;;6.20;2.80;;;19.60;99.90;;;;;;5040023;28;20174;-80
2022/07/29 11:45:07;;;;;;;13.52;3.00;;;19.60;99.90;;;;;;5044598;28;20221;-80
2022/07/29 11:47:39;;;;;;;7.50;2.90;;;19.50;99.90;;;;;;5041677;28;20194;-79
2022/07/29 11:50:08;;;;;;;8.00;3.70;;;19.70;99.90;;;;;;5042072;28;20173;-80
2022/07/29 11:52:46;;;;;;;12.00;3.00;;;19.70;99.90;;;;;;5048357;28;20176;-79
2022/07/29 11:55:22;;;;;;;8.68;3.50;;;19.60;99.90;;;;;;5046533;28;20188;-80
2022/07/29 11:57:53;;;;;;;13.23;3.33;;;19.30;99.90;;;;;;5044758;28;20277;-81
2022/07/29 12:00:30;;;;;;;11.27;3.45;;;19.20;99.90;;;;;;5044509;28;20196;-81
2022/07/29 12:02:59;;;;;;;8.50;3.20;;;19.20;99.90;;;;;;5043566;28;20451;-79
2022/07/29 12:05:51;;;;;;;9.47;3.30;;;19.00;99.90;;;;;;5030776;28;20194;-79
2022/07/29 12:08:22;;;;;;;11.07;3.50;;;19.00;99.90;;;;;;5032242;28;20190;-81
2022/07/29 12:10:49;;;;;;;12.57;3.97;;;18.80;99.90;;;;;;5035105;28;20265;-80
2022/07/29 12:13:17;;;;;;;14.33;3.80;;;18.80;99.90;;;;;;5035047;28;20677;-78
2022/07/29 12:15:52;;;;;;;9.90;4.82;;;18.80;99.90;;;;;;5034725;28;20281;-79
2022/07/29 12:18:22;;;;;;;6.47;3.83;;;18.70;99.90;;;;;;5036107;28;20173;-80
2022/07/29 12:20:55;;;;;;;11.10;4.37;;;18.70;99.90;;;;;;5035408;28;20182;-81
2022/07/29 12:23:21;;;;;;;10.63;4.27;;;18.60;99.90;;;;;;5051014;28;20170;-81
2022/07/29 12:25:47;;;;;;;6.17;3.70;;;18.70;99.90;;;;;;5055396;28;20658;-82
2022/07/29 12:28:15;;;;;;;8.47;4.00;;;18.90;99.90;;;;;;5048904;28;20166;-80
2022/07/29 12:30:48;;;;;;;11.50;4.23;;;18.90;99.90;;;;;;5051381;28;20174;-82
2022/07/29 12:33:21;;;;;;;9.40;4.00;;;18.90;99.90;;;;;;5048264;28;20167;-83
2022/07/29 12:35:59;;;;;;;11.83;4.87;;;19.00;99.90;;;;;;5051623;28;20197;-82
2022/07/29 12:38:25;;;;;;;7.87;3.80;;;18.90;99.90;;;;;;5048790;28;20193;-81
2022/07/29 12:40:53;;;;;;;7.13;3.40;;;19.00;99.90;;;;;;5048776;28;20454;-81
2022/07/29 12:43:21;;;;;;;9.20;3.53;;;19.00;99.90;;;;;;5052063;28;20515;-83
2022/07/29 12:45:49;;;;;;;12.83;4.00;;;19.00;99.90;;;;;;5048875;28;20217;-81
2022/07/29 12:48:16;;;;;;;11.27;4.80;;;18.90;99.90;;;;;;5047741;28;20173;-83
2022/07/29 12:50:58;;;;;;;14.83;4.17;;;19.10;99.90;;;;;;5046015;28;20182;-83
2022/07/29 12:53:26;;;;;;;9.30;3.80;;;19.10;99.90;;;;;;5039666;28;20174;-82
2022/07/29 12:55:59;;;;;;;12.37;4.17;;;19.20;99.90;;;;;;5036017;28;20280;-83
2022/07/29 12:58:41;;;;;;;9.53;4.10;;;19.20;99.90;;;;;;5037200;28;20200;-82